sensor_id;sensor_type;location;lat;lon;timestamp;P1;durP1;ratioP1;P2;durP2;ratioP2
19969;SDS011;10146;47.754;9.566;2022-09-09T00:06:57;4.25;;;1.70;;
19969;SDS011;10146;47.754;9.566;2022-09-09T00:09:46;5.20;;;1.63;;
19969;SDS011;10146;47.754;9.566;2022-09-09T00:12:36;2.53;;;1.42;;
19969;SDS011;10146;47.754;9.566;2022-09-09T00:15:15;4.50;;;1.33;;
19969;SDS011;10146;47.754;9.566;2022-09-09T00:18:01;2.45;;;1.40;;
19969;SDS011;10146;47.754;9.566;2022-09-09T00:20:38;3.67;;;1.77;;
19969;SDS011;10146;47.754;9.566;2022-09-09T00:23:21;4.43;;;1.65;;
19969;SDS011;10146;47.754;9.566;2022-09-09T00:25:54;4.30;;;1.50;;
19969;SDS011;10146;47.754;9.566;2022-09-09T00:29:09;4.68;;;1.60;;
19969;SDS011;10146;47.754;9.566;2022-09-09T00:31:51;3.75;;;1.60;;
19969;SDS011;10146;47.754;9.566;2022-09-09T00:34:22;8.15;;;1.85;;
19969;SDS011;10146;47.754;9.566;2022-09-09T00:36:51;5.13;;;1.80;;
19969;SDS011;10146;47.754;9.566;2022-09-09T00:39:27;4.70;;;1.90;;
19969;SDS011;10146;47.754;9.566;2022-09-09T00:44:37;8.73;;;2.00;;
19969;SDS011;10146;47.754;9.566;2022-09-09T00:47:15;3.10;;;1.77;;
19969;SDS011;10146;47.754;9.566;2022-09-09T00:50:22;4.03;;;2.10;;
19969;SDS011;10146;47.754;9.566;2022-09-09T00:58:34;3.30;;;1.85;;
19969;SDS011;10146;47.754;9.566;2022-09-09T01:01:04;5.30;;;1.73;;
19969;SDS011;10146;47.754;9.566;2022-09-09T01:03:34;6.05;;;1.90;;
19969;SDS011;10146;47.754;9.566;2022-09-09T01:16:54;6.38;;;2.20;;
19969;SDS011;10146;47.754;9.566;2022-09-09T01:19:27;4.57;;;1.40;;
19969;SDS011;10146;47.754;9.566;2022-09-09T01:22:15;3.67;;;1.60;;
19969;SDS011;10146;47.754;9.566;2022-09-09T01:27:27;6.28;;;1.50;;
19969;SDS011;10146;47.754;9.566;2022-09-09T01:29:52;3.83;;;1.85;;
19969;SDS011;10146;47.754;9.566;2022-09-09T01:35:03;3.67;;;1.63;;
19969;SDS011;10146;47.754;9.566;2022-09-09T01:37:29;5.30;;;2.08;;
19969;SDS011;10146;47.754;9.566;2022-09-09T01:39:54;5.00;;;1.90;;
19969;SDS011;10146;47.754;9.566;2022-09-09T01:42:20;2.30;;;2.10;;
19969;SDS011;10146;47.754;9.566;2022-09-09T01:44:46;4.88;;;2.13;;
19969;SDS011;10146;47.754;9.566;2022-09-09T01:47:11;5.28;;;2.38;;
19969;SDS011;10146;47.754;9.566;2022-09-09T01:49:37;4.45;;;1.77;;
19969;SDS011;10146;47.754;9.566;2022-09-09T01:52:03;3.45;;;1.63;;
19969;SDS011;10146;47.754;9.566;2022-09-09T01:54:29;3.47;;;1.95;;
19969;SDS011;10146;47.754;9.566;2022-09-09T01:59:57;3.50;;;1.90;;
19969;SDS011;10146;47.754;9.566;2022-09-09T02:02:36;3.65;;;1.70;;
19969;SDS011;10146;47.754;9.566;2022-09-09T02:08:18;8.10;;;1.80;;
19969;SDS011;10146;47.754;9.566;2022-09-09T02:13:45;4.50;;;1.75;;
19969;SDS011;10146;47.754;9.566;2022-09-09T02:16:33;6.30;;;2.35;;
19969;SDS011;10146;47.754;9.566;2022-09-09T02:19:14;5.22;;;1.90;;
19969;SDS011;10146;47.754;9.566;2022-09-09T02:21:42;3.25;;;1.90;;
19969;SDS011;10146;47.754;9.566;2022-09-09T02:24:11;3.42;;;1.80;;
19969;SDS011;10146;47.754;9.566;2022-09-09T02:26:40;5.53;;;1.90;;
19969;SDS011;10146;47.754;9.566;2022-09-09T02:29:19;5.78;;;2.00;;
19969;SDS011;10146;47.754;9.566;2022-09-09T02:31:51;2.05;;;1.80;;
19969;SDS011;10146;47.754;9.566;2022-09-09T02:34:20;2.92;;;1.90;;
19969;SDS011;10146;47.754;9.566;2022-09-09T02:36:49;4.95;;;2.10;;
19969;SDS011;10146;47.754;9.566;2022-09-09T02:39:16;7.35;;;2.20;;
19969;SDS011;10146;47.754;9.566;2022-09-09T02:41:41;4.88;;;1.80;;
19969;SDS011;10146;47.754;9.566;2022-09-09T02:44:11;3.95;;;2.00;;
19969;SDS011;10146;47.754;9.566;2022-09-09T02:46:47;5.72;;;2.10;;
19969;SDS011;10146;47.754;9.566;2022-09-09T02:49:40;2.35;;;2.15;;
19969;SDS011;10146;47.754;9.566;2022-09-09T02:52:24;5.30;;;2.17;;
19969;SDS011;10146;47.754;9.566;2022-09-09T02:54:57;4.90;;;2.47;;
19969;SDS011;10146;47.754;9.566;2022-09-09T02:57:31;6.93;;;2.20;;
19969;SDS011;10146;47.754;9.566;2022-09-09T02:59:59;6.18;;;2.42;;
19969;SDS011;10146;47.754;9.566;2022-09-09T03:02:26;5.70;;;1.90;;
19969;SDS011;10146;47.754;9.566;2022-09-09T03:04:52;4.72;;;1.95;;
19969;SDS011;10146;47.754;9.566;2022-09-09T03:07:20;5.88;;;2.33;;
19969;SDS011;10146;47.754;9.566;2022-09-09T03:09:46;6.03;;;1.80;;
19969;SDS011;10146;47.754;9.566;2022-09-09T03:12:12;2.45;;;1.75;;
19969;SDS011;10146;47.754;9.566;2022-09-09T03:14:38;4.25;;;1.90;;
19969;SDS011;10146;47.754;9.566;2022-09-09T03:17:04;5.28;;;2.00;;
19969;SDS011;10146;47.754;9.566;2022-09-09T03:19:30;3.80;;;2.15;;
19969;SDS011;10146;47.754;9.566;2022-09-09T03:21:56;4.75;;;1.88;;
19969;SDS011;10146;47.754;9.566;2022-09-09T03:24:23;5.05;;;2.40;;
19969;SDS011;10146;47.754;9.566;2022-09-09T03:26:49;3.25;;;1.77;;
19969;SDS011;10146;47.754;9.566;2022-09-09T03:29:15;3.88;;;2.50;;
19969;SDS011;10146;47.754;9.566;2022-09-09T03:31:42;5.82;;;2.20;;
19969;SDS011;10146;47.754;9.566;2022-09-09T03:34:08;4.97;;;2.13;;
19969;SDS011;10146;47.754;9.566;2022-09-09T03:36:34;2.88;;;2.25;;
19969;SDS011;10146;47.754;9.566;2022-09-09T03:39:00;4.53;;;2.17;;
19969;SDS011;10146;47.754;9.566;2022-09-09T03:41:27;4.45;;;2.17;;
19969;SDS011;10146;47.754;9.566;2022-09-09T03:43:53;5.30;;;1.80;;
19969;SDS011;10146;47.754;9.566;2022-09-09T03:46:20;4.55;;;2.20;;
19969;SDS011;10146;47.754;9.566;2022-09-09T03:48:46;6.25;;;2.08;;
19969;SDS011;10146;47.754;9.566;2022-09-09T03:51:12;2.53;;;1.83;;
19969;SDS011;10146;47.754;9.566;2022-09-09T03:53:38;3.83;;;1.95;;
19969;SDS011;10146;47.754;9.566;2022-09-09T03:56:04;4.88;;;2.45;;
19969;SDS011;10146;47.754;9.566;2022-09-09T03:58:32;4.85;;;2.17;;
19969;SDS011;10146;47.754;9.566;2022-09-09T04:01:00;3.00;;;2.33;;
19969;SDS011;10146;47.754;9.566;2022-09-09T04:03:30;5.70;;;2.47;;
19969;SDS011;10146;47.754;9.566;2022-09-09T04:05:56;5.20;;;2.45;;
19969;SDS011;10146;47.754;9.566;2022-09-09T04:08:23;3.67;;;2.00;;
19969;SDS011;10146;47.754;9.566;2022-09-09T04:10:53;3.95;;;2.03;;
19969;SDS011;10146;47.754;9.566;2022-09-09T04:13:22;5.22;;;2.40;;
19969;SDS011;10146;47.754;9.566;2022-09-09T04:15:54;3.88;;;2.13;;
19969;SDS011;10146;47.754;9.566;2022-09-09T04:18:22;4.65;;;2.13;;
19969;SDS011;10146;47.754;9.566;2022-09-09T04:20:49;4.47;;;2.40;;
19969;SDS011;10146;47.754;9.566;2022-09-09T04:23:15;6.47;;;2.50;;
19969;SDS011;10146;47.754;9.566;2022-09-09T04:25:53;2.95;;;2.33;;
19969;SDS011;10146;47.754;9.566;2022-09-09T04:28:20;3.75;;;2.50;;
19969;SDS011;10146;47.754;9.566;2022-09-09T04:30:47;6.70;;;2.97;;
19969;SDS011;10146;47.754;9.566;2022-09-09T04:33:14;4.15;;;2.42;;
19969;SDS011;10146;47.754;9.566;2022-09-09T04:35:44;6.95;;;2.40;;
19969;SDS011;10146;47.754;9.566;2022-09-09T04:38:11;3.08;;;2.20;;
19969;SDS011;10146;47.754;9.566;2022-09-09T04:40:37;3.47;;;2.03;;
19969;SDS011;10146;47.754;9.566;2022-09-09T04:43:07;4.18;;;2.20;;
19969;SDS011;10146;47.754;9.566;2022-09-09T04:45:33;4.00;;;2.42;;
19969;SDS011;10146;47.754;9.566;2022-09-09T04:47:59;3.65;;;2.30;;
19969;SDS011;10146;47.754;9.566;2022-09-09T04:50:25;4.55;;;2.40;;
19969;SDS011;10146;47.754;9.566;2022-09-09T04:52:50;4.20;;;2.35;;
19969;SDS011;10146;47.754;9.566;2022-09-09T04:55:16;4.00;;;2.60;;
19969;SDS011;10146;47.754;9.566;2022-09-09T04:57:42;3.75;;;2.80;;
19969;SDS011;10146;47.754;9.566;2022-09-09T05:00:08;5.47;;;2.42;;
19969;SDS011;10146;47.754;9.566;2022-09-09T05:02:38;5.35;;;2.22;;
19969;SDS011;10146;47.754;9.566;2022-09-09T05:05:04;2.95;;;2.40;;
19969;SDS011;10146;47.754;9.566;2022-09-09T05:07:31;5.35;;;2.80;;
19969;SDS011;10146;47.754;9.566;2022-09-09T05:09:56;2.72;;;2.40;;
19969;SDS011;10146;47.754;9.566;2022-09-09T05:12:22;4.45;;;3.00;;
19969;SDS011;10146;47.754;9.566;2022-09-09T05:14:50;3.97;;;2.75;;
19969;SDS011;10146;47.754;9.566;2022-09-09T05:17:16;4.90;;;2.45;;
19969;SDS011;10146;47.754;9.566;2022-09-09T05:19:42;3.90;;;2.40;;
19969;SDS011;10146;47.754;9.566;2022-09-09T05:22:08;4.20;;;2.30;;
19969;SDS011;10146;47.754;9.566;2022-09-09T05:24:33;3.15;;;2.47;;
19969;SDS011;10146;47.754;9.566;2022-09-09T05:26:59;3.55;;;2.90;;
19969;SDS011;10146;47.754;9.566;2022-09-09T05:29:27;4.53;;;2.70;;
19969;SDS011;10146;47.754;9.566;2022-09-09T05:31:53;3.55;;;2.90;;
19969;SDS011;10146;47.754;9.566;2022-09-09T05:34:19;5.00;;;2.88;;
19969;SDS011;10146;47.754;9.566;2022-09-09T05:36:45;3.70;;;2.58;;
19969;SDS011;10146;47.754;9.566;2022-09-09T05:39:11;4.93;;;2.70;;
19969;SDS011;10146;47.754;9.566;2022-09-09T05:41:37;5.22;;;3.08;;
19969;SDS011;10146;47.754;9.566;2022-09-09T05:44:03;4.63;;;3.17;;
19969;SDS011;10146;47.754;9.566;2022-09-09T05:46:28;5.35;;;3.00;;
19969;SDS011;10146;47.754;9.566;2022-09-09T05:48:55;4.28;;;3.10;;
19969;SDS011;10146;47.754;9.566;2022-09-09T05:51:21;6.80;;;3.03;;
19969;SDS011;10146;47.754;9.566;2022-09-09T05:53:49;5.00;;;2.63;;
19969;SDS011;10146;47.754;9.566;2022-09-09T05:56:20;5.28;;;2.90;;
19969;SDS011;10146;47.754;9.566;2022-09-09T05:58:48;5.32;;;3.67;;
19969;SDS011;10146;47.754;9.566;2022-09-09T06:01:15;3.35;;;2.88;;
19969;SDS011;10146;47.754;9.566;2022-09-09T06:03:43;4.22;;;2.97;;
19969;SDS011;10146;47.754;9.566;2022-09-09T06:06:13;7.55;;;3.20;;
19969;SDS011;10146;47.754;9.566;2022-09-09T06:08:42;5.95;;;2.80;;
19969;SDS011;10146;47.754;9.566;2022-09-09T06:11:30;7.22;;;3.00;;
19969;SDS011;10146;47.754;9.566;2022-09-09T06:13:58;3.80;;;2.92;;
19969;SDS011;10146;47.754;9.566;2022-09-09T06:16:25;5.13;;;2.53;;
19969;SDS011;10146;47.754;9.566;2022-09-09T06:18:52;2.92;;;2.72;;
19969;SDS011;10146;47.754;9.566;2022-09-09T06:21:23;5.65;;;2.70;;
19969;SDS011;10146;47.754;9.566;2022-09-09T06:23:50;4.00;;;2.38;;
19969;SDS011;10146;47.754;9.566;2022-09-09T06:26:19;6.13;;;2.47;;
19969;SDS011;10146;47.754;9.566;2022-09-09T06:28:47;3.47;;;2.58;;
19969;SDS011;10146;47.754;9.566;2022-09-09T06:31:15;2.97;;;2.45;;
19969;SDS011;10146;47.754;9.566;2022-09-09T06:33:42;4.05;;;2.53;;
19969;SDS011;10146;47.754;9.566;2022-09-09T06:36:11;5.45;;;2.90;;
19969;SDS011;10146;47.754;9.566;2022-09-09T06:38:38;5.63;;;2.90;;
19969;SDS011;10146;47.754;9.566;2022-09-09T06:41:04;4.60;;;2.70;;
19969;SDS011;10146;47.754;9.566;2022-09-09T06:43:30;4.35;;;2.70;;
19969;SDS011;10146;47.754;9.566;2022-09-09T06:45:57;4.70;;;2.95;;
19969;SDS011;10146;47.754;9.566;2022-09-09T06:48:25;3.70;;;2.50;;
19969;SDS011;10146;47.754;9.566;2022-09-09T06:51:04;3.85;;;2.90;;
19969;SDS011;10146;47.754;9.566;2022-09-09T06:53:31;3.17;;;2.67;;
19969;SDS011;10146;47.754;9.566;2022-09-09T06:55:59;3.65;;;2.97;;
19969;SDS011;10146;47.754;9.566;2022-09-09T06:58:41;6.53;;;2.55;;
19969;SDS011;10146;47.754;9.566;2022-09-09T07:01:09;7.35;;;2.92;;
19969;SDS011;10146;47.754;9.566;2022-09-09T07:03:37;6.82;;;3.17;;
19969;SDS011;10146;47.754;9.566;2022-09-09T07:06:04;4.32;;;2.60;;
19969;SDS011;10146;47.754;9.566;2022-09-09T07:08:30;4.15;;;2.83;;
19969;SDS011;10146;47.754;9.566;2022-09-09T07:11:06;4.97;;;2.88;;
19969;SDS011;10146;47.754;9.566;2022-09-09T07:13:32;4.40;;;3.20;;
19969;SDS011;10146;47.754;9.566;2022-09-09T07:16:05;3.20;;;2.55;;
19969;SDS011;10146;47.754;9.566;2022-09-09T07:18:36;4.88;;;2.60;;
19969;SDS011;10146;47.754;9.566;2022-09-09T07:21:02;3.63;;;2.75;;
19969;SDS011;10146;47.754;9.566;2022-09-09T07:23:29;5.40;;;2.80;;
19969;SDS011;10146;47.754;9.566;2022-09-09T07:25:56;5.35;;;2.83;;
19969;SDS011;10146;47.754;9.566;2022-09-09T07:28:23;6.53;;;3.17;;
19969;SDS011;10146;47.754;9.566;2022-09-09T07:30:55;6.28;;;3.40;;
19969;SDS011;10146;47.754;9.566;2022-09-09T07:33:23;3.70;;;2.63;;
19969;SDS011;10146;47.754;9.566;2022-09-09T07:35:50;3.35;;;2.47;;
19969;SDS011;10146;47.754;9.566;2022-09-09T07:38:16;2.70;;;2.40;;
19969;SDS011;10146;47.754;9.566;2022-09-09T07:40:41;3.67;;;3.35;;
19969;SDS011;10146;47.754;9.566;2022-09-09T07:43:07;3.78;;;2.42;;
19969;SDS011;10146;47.754;9.566;2022-09-09T07:45:33;2.08;;;1.80;;
19969;SDS011;10146;47.754;9.566;2022-09-09T07:48:00;2.90;;;2.20;;
19969;SDS011;10146;47.754;9.566;2022-09-09T07:50:26;6.57;;;2.80;;
19969;SDS011;10146;47.754;9.566;2022-09-09T07:52:52;4.18;;;2.58;;
19969;SDS011;10146;47.754;9.566;2022-09-09T07:55:19;4.18;;;3.08;;
19969;SDS011;10146;47.754;9.566;2022-09-09T07:57:52;4.43;;;3.15;;
19969;SDS011;10146;47.754;9.566;2022-09-09T08:00:18;3.42;;;2.30;;
19969;SDS011;10146;47.754;9.566;2022-09-09T08:02:46;2.92;;;2.17;;
19969;SDS011;10146;47.754;9.566;2022-09-09T08:05:12;5.30;;;2.30;;
19969;SDS011;10146;47.754;9.566;2022-09-09T08:07:38;5.10;;;2.72;;
19969;SDS011;10146;47.754;9.566;2022-09-09T08:10:04;5.47;;;2.35;;
19969;SDS011;10146;47.754;9.566;2022-09-09T08:12:31;4.05;;;2.42;;
19969;SDS011;10146;47.754;9.566;2022-09-09T08:14:57;2.35;;;2.10;;
19969;SDS011;10146;47.754;9.566;2022-09-09T08:17:23;2.85;;;2.08;;
19969;SDS011;10146;47.754;9.566;2022-09-09T08:19:49;3.90;;;2.13;;
19969;SDS011;10146;47.754;9.566;2022-09-09T08:22:14;3.10;;;1.92;;
19969;SDS011;10146;47.754;9.566;2022-09-09T08:24:40;3.22;;;1.85;;
19969;SDS011;10146;47.754;9.566;2022-09-09T08:27:06;3.78;;;2.05;;
19969;SDS011;10146;47.754;9.566;2022-09-09T08:29:31;2.72;;;1.73;;
19969;SDS011;10146;47.754;9.566;2022-09-09T08:31:57;4.22;;;1.90;;
19969;SDS011;10146;47.754;9.566;2022-09-09T08:34:24;2.97;;;1.77;;
19969;SDS011;10146;47.754;9.566;2022-09-09T08:36:51;3.67;;;1.77;;
19969;SDS011;10146;47.754;9.566;2022-09-09T08:39:19;3.70;;;2.00;;
19969;SDS011;10146;47.754;9.566;2022-09-09T08:41:56;2.88;;;1.75;;
19969;SDS011;10146;47.754;9.566;2022-09-09T08:53:16;2.90;;;2.05;;
19969;SDS011;10146;47.754;9.566;2022-09-09T08:55:58;1.90;;;1.65;;
19969;SDS011;10146;47.754;9.566;2022-09-09T08:58:27;3.15;;;2.03;;
19969;SDS011;10146;47.754;9.566;2022-09-09T09:06:55;4.85;;;2.00;;
19969;SDS011;10146;47.754;9.566;2022-09-09T09:12:22;2.58;;;1.63;;
19969;SDS011;10146;47.754;9.566;2022-09-09T09:14:49;2.80;;;2.10;;
19969;SDS011;10146;47.754;9.566;2022-09-09T09:17:19;3.95;;;1.90;;
19969;SDS011;10146;47.754;9.566;2022-09-09T09:19:47;2.55;;;1.60;;
19969;SDS011;10146;47.754;9.566;2022-09-09T09:22:16;2.45;;;1.60;;
19969;SDS011;10146;47.754;9.566;2022-09-09T09:24:54;3.22;;;1.42;;
19969;SDS011;10146;47.754;9.566;2022-09-09T09:31:16;3.40;;;1.42;;
19969;SDS011;10146;47.754;9.566;2022-09-09T09:33:46;5.43;;;2.20;;
19969;SDS011;10146;47.754;9.566;2022-09-09T09:36:18;2.67;;;1.50;;
19969;SDS011;10146;47.754;9.566;2022-09-09T09:38:52;3.28;;;1.73;;
19969;SDS011;10146;47.754;9.566;2022-09-09T09:41:55;3.15;;;1.55;;
19969;SDS011;10146;47.754;9.566;2022-09-09T09:44:30;3.28;;;1.40;;
19969;SDS011;10146;47.754;9.566;2022-09-09T09:49:39;3.90;;;1.48;;
19969;SDS011;10146;47.754;9.566;2022-09-09T09:52:21;3.60;;;1.42;;
19969;SDS011;10146;47.754;9.566;2022-09-09T09:54:52;3.45;;;1.13;;
19969;SDS011;10146;47.754;9.566;2022-09-09T09:57:18;2.95;;;1.35;;
19969;SDS011;10146;47.754;9.566;2022-09-09T09:59:59;2.15;;;1.25;;
19969;SDS011;10146;47.754;9.566;2022-09-09T10:02:40;1.55;;;1.00;;
19969;SDS011;10146;47.754;9.566;2022-09-09T10:07:42;3.45;;;1.27;;
19969;SDS011;10146;47.754;9.566;2022-09-09T10:10:12;3.00;;;0.93;;
19969;SDS011;10146;47.754;9.566;2022-09-09T10:18:45;3.75;;;1.10;;
19969;SDS011;10146;47.754;9.566;2022-09-09T10:26:42;2.63;;;1.10;;
19969;SDS011;10146;47.754;9.566;2022-09-09T10:32:49;2.72;;;0.80;;
19969;SDS011;10146;47.754;9.566;2022-09-09T10:34:56;4.28;;;1.17;;
19969;SDS011;10146;47.754;9.566;2022-09-09T10:37:41;1.55;;;0.85;;
19969;SDS011;10146;47.754;9.566;2022-09-09T10:40:28;2.58;;;1.33;;
19969;SDS011;10146;47.754;9.566;2022-09-09T10:43:04;3.00;;;0.80;;
19969;SDS011;10146;47.754;9.566;2022-09-09T10:48:30;3.42;;;1.25;;
19969;SDS011;10146;47.754;9.566;2022-09-09T10:56:13;3.00;;;0.73;;
19969;SDS011;10146;47.754;9.566;2022-09-09T11:01:42;1.60;;;0.73;;
19969;SDS011;10146;47.754;9.566;2022-09-09T11:07:26;4.25;;;2.97;;
19969;SDS011;10146;47.754;9.566;2022-09-09T11:13:26;2.22;;;0.90;;
19969;SDS011;10146;47.754;9.566;2022-09-09T11:16:01;1.70;;;0.90;;
19969;SDS011;10146;47.754;9.566;2022-09-09T11:18:38;2.08;;;1.33;;
19969;SDS011;10146;47.754;9.566;2022-09-09T11:21:06;3.28;;;1.30;;
19969;SDS011;10146;47.754;9.566;2022-09-09T11:23:44;3.22;;;1.25;;
19969;SDS011;10146;47.754;9.566;2022-09-09T11:26:17;2.70;;;0.88;;
19969;SDS011;10146;47.754;9.566;2022-09-09T11:34:19;2.20;;;0.90;;
19969;SDS011;10146;47.754;9.566;2022-09-09T11:37:03;4.57;;;1.25;;
19969;SDS011;10146;47.754;9.566;2022-09-09T11:39:43;3.67;;;0.82;;
19969;SDS011;10146;47.754;9.566;2022-09-09T11:42:27;2.13;;;1.10;;
19969;SDS011;10146;47.754;9.566;2022-09-09T11:44:53;2.33;;;1.15;;
19969;SDS011;10146;47.754;9.566;2022-09-09T11:47:29;2.33;;;0.90;;
19969;SDS011;10146;47.754;9.566;2022-09-09T11:52:41;3.08;;;1.00;;
19969;SDS011;10146;47.754;9.566;2022-09-09T11:57:48;2.22;;;0.70;;
19969;SDS011;10146;47.754;9.566;2022-09-09T12:00:39;5.57;;;1.10;;
19969;SDS011;10146;47.754;9.566;2022-09-09T12:08:46;3.47;;;1.00;;
19969;SDS011;10146;47.754;9.566;2022-09-09T12:11:25;4.97;;;1.50;;
19969;SDS011;10146;47.754;9.566;2022-09-09T12:13:53;4.28;;;1.13;;
19969;SDS011;10146;47.754;9.566;2022-09-09T12:16:30;2.10;;;0.90;;
19969;SDS011;10146;47.754;9.566;2022-09-09T12:19:03;2.50;;;0.82;;
19969;SDS011;10146;47.754;9.566;2022-09-09T12:24:25;3.17;;;0.82;;
19969;SDS011;10146;47.754;9.566;2022-09-09T12:27:07;1.50;;;0.77;;
19969;SDS011;10146;47.754;9.566;2022-09-09T12:30:02;1.50;;;0.80;;
19969;SDS011;10146;47.754;9.566;2022-09-09T12:32:40;2.17;;;0.90;;
19969;SDS011;10146;47.754;9.566;2022-09-09T12:35:13;2.95;;;1.10;;
19969;SDS011;10146;47.754;9.566;2022-09-09T12:37:52;2.55;;;1.02;;
19969;SDS011;10146;47.754;9.566;2022-09-09T12:40:25;2.55;;;1.00;;
19969;SDS011;10146;47.754;9.566;2022-09-09T12:42:56;2.17;;;0.80;;
19969;SDS011;10146;47.754;9.566;2022-09-09T12:45:23;3.90;;;1.00;;
19969;SDS011;10146;47.754;9.566;2022-09-09T12:50:22;2.20;;;1.08;;
19969;SDS011;10146;47.754;9.566;2022-09-09T12:52:51;2.90;;;0.85;;
19969;SDS011;10146;47.754;9.566;2022-09-09T12:55:32;2.40;;;1.10;;
19969;SDS011;10146;47.754;9.566;2022-09-09T12:58:04;2.53;;;0.75;;
19969;SDS011;10146;47.754;9.566;2022-09-09T13:00:31;2.90;;;1.05;;
19969;SDS011;10146;47.754;9.566;2022-09-09T13:02:59;1.98;;;1.00;;
19969;SDS011;10146;47.754;9.566;2022-09-09T13:05:36;2.03;;;1.02;;
19969;SDS011;10146;47.754;9.566;2022-09-09T13:08:08;1.17;;;0.85;;
19969;SDS011;10146;47.754;9.566;2022-09-09T13:10:46;1.40;;;0.85;;
19969;SDS011;10146;47.754;9.566;2022-09-09T13:13:22;2.33;;;0.90;;
19969;SDS011;10146;47.754;9.566;2022-09-09T13:15:53;2.47;;;0.80;;
19969;SDS011;10146;47.754;9.566;2022-09-09T13:18:42;1.58;;;0.70;;
19969;SDS011;10146;47.754;9.566;2022-09-09T13:21:07;3.08;;;0.80;;
19969;SDS011;10146;47.754;9.566;2022-09-09T13:23:33;3.53;;;1.20;;
19969;SDS011;10146;47.754;9.566;2022-09-09T13:26:02;2.35;;;0.85;;
19969;SDS011;10146;47.754;9.566;2022-09-09T13:28:48;1.92;;;1.00;;
19969;SDS011;10146;47.754;9.566;2022-09-09T13:31:24;2.45;;;0.80;;
19969;SDS011;10146;47.754;9.566;2022-09-09T13:33:54;1.55;;;0.70;;
19969;SDS011;10146;47.754;9.566;2022-09-09T13:36:27;1.75;;;0.60;;
19969;SDS011;10146;47.754;9.566;2022-09-09T13:38:55;2.47;;;0.77;;
19969;SDS011;10146;47.754;9.566;2022-09-09T13:41:43;5.03;;;0.95;;
19969;SDS011;10146;47.754;9.566;2022-09-09T13:44:25;1.98;;;0.90;;
19969;SDS011;10146;47.754;9.566;2022-09-09T13:49:44;2.35;;;0.95;;
19969;SDS011;10146;47.754;9.566;2022-09-09T13:52:11;1.95;;;0.52;;
19969;SDS011;10146;47.754;9.566;2022-09-09T13:54:43;2.50;;;0.80;;
19969;SDS011;10146;47.754;9.566;2022-09-09T13:57:20;2.50;;;0.55;;
19969;SDS011;10146;47.754;9.566;2022-09-09T13:59:47;4.57;;;1.05;;
19969;SDS011;10146;47.754;9.566;2022-09-09T14:02:14;0.63;;;0.60;;
19969;SDS011;10146;47.754;9.566;2022-09-09T14:04:41;2.25;;;0.70;;
19969;SDS011;10146;47.754;9.566;2022-09-09T14:07:09;1.33;;;0.70;;
19969;SDS011;10146;47.754;9.566;2022-09-09T14:09:38;3.13;;;0.85;;
19969;SDS011;10146;47.754;9.566;2022-09-09T14:12:04;3.00;;;0.80;;
19969;SDS011;10146;47.754;9.566;2022-09-09T14:14:30;2.88;;;0.80;;
19969;SDS011;10146;47.754;9.566;2022-09-09T14:16:56;3.10;;;0.70;;
19969;SDS011;10146;47.754;9.566;2022-09-09T14:19:21;4.07;;;0.90;;
19969;SDS011;10146;47.754;9.566;2022-09-09T14:21:47;3.30;;;0.90;;
19969;SDS011;10146;47.754;9.566;2022-09-09T14:24:13;1.05;;;0.52;;
19969;SDS011;10146;47.754;9.566;2022-09-09T14:26:39;4.07;;;1.05;;
19969;SDS011;10146;47.754;9.566;2022-09-09T14:29:05;1.00;;;0.80;;
19969;SDS011;10146;47.754;9.566;2022-09-09T14:31:31;2.42;;;0.65;;
19969;SDS011;10146;47.754;9.566;2022-09-09T14:33:57;1.45;;;0.80;;
19969;SDS011;10146;47.754;9.566;2022-09-09T14:36:23;2.60;;;1.08;;
19969;SDS011;10146;47.754;9.566;2022-09-09T14:38:49;1.70;;;0.82;;
19969;SDS011;10146;47.754;9.566;2022-09-09T14:41:16;1.60;;;0.70;;
19969;SDS011;10146;47.754;9.566;2022-09-09T14:43:42;1.10;;;0.60;;
19969;SDS011;10146;47.754;9.566;2022-09-09T14:46:10;2.53;;;0.73;;
19969;SDS011;10146;47.754;9.566;2022-09-09T14:48:37;1.83;;;0.70;;
19969;SDS011;10146;47.754;9.566;2022-09-09T14:51:09;2.55;;;0.80;;
19969;SDS011;10146;47.754;9.566;2022-09-09T14:53:37;1.60;;;0.70;;
19969;SDS011;10146;47.754;9.566;2022-09-09T14:56:05;1.15;;;0.57;;
19969;SDS011;10146;47.754;9.566;2022-09-09T14:58:35;1.70;;;0.60;;
19969;SDS011;10146;47.754;9.566;2022-09-09T15:01:06;3.60;;;1.45;;
19969;SDS011;10146;47.754;9.566;2022-09-09T15:03:37;2.33;;;0.63;;
19969;SDS011;10146;47.754;9.566;2022-09-09T15:06:04;1.40;;;0.60;;
19969;SDS011;10146;47.754;9.566;2022-09-09T15:08:38;1.75;;;0.68;;
19969;SDS011;10146;47.754;9.566;2022-09-09T15:11:06;2.15;;;0.52;;
19969;SDS011;10146;47.754;9.566;2022-09-09T15:13:32;1.70;;;0.90;;
19969;SDS011;10146;47.754;9.566;2022-09-09T15:18:55;2.05;;;0.85;;
19969;SDS011;10146;47.754;9.566;2022-09-09T15:21:23;2.63;;;0.80;;
19969;SDS011;10146;47.754;9.566;2022-09-09T15:23:50;2.55;;;0.93;;
19969;SDS011;10146;47.754;9.566;2022-09-09T15:26:17;1.10;;;0.63;;
19969;SDS011;10146;47.754;9.566;2022-09-09T15:28:43;1.25;;;0.70;;
19969;SDS011;10146;47.754;9.566;2022-09-09T15:31:15;2.38;;;0.60;;
19969;SDS011;10146;47.754;9.566;2022-09-09T15:33:52;2.00;;;0.68;;
19969;SDS011;10146;47.754;9.566;2022-09-09T15:36:35;2.38;;;0.85;;
19969;SDS011;10146;47.754;9.566;2022-09-09T15:39:03;1.30;;;0.75;;
19969;SDS011;10146;47.754;9.566;2022-09-09T15:41:30;2.85;;;0.80;;
19969;SDS011;10146;47.754;9.566;2022-09-09T15:43:59;2.53;;;0.95;;
19969;SDS011;10146;47.754;9.566;2022-09-09T15:49:10;2.45;;;0.88;;
19969;SDS011;10146;47.754;9.566;2022-09-09T15:51:38;3.25;;;0.70;;
19969;SDS011;10146;47.754;9.566;2022-09-09T15:54:06;1.83;;;0.90;;
19969;SDS011;10146;47.754;9.566;2022-09-09T15:56:32;2.53;;;0.90;;
19969;SDS011;10146;47.754;9.566;2022-09-09T15:58:58;1.35;;;0.73;;
19969;SDS011;10146;47.754;9.566;2022-09-09T16:01:24;1.15;;;0.80;;
19969;SDS011;10146;47.754;9.566;2022-09-09T16:03:51;1.52;;;0.93;;
19969;SDS011;10146;47.754;9.566;2022-09-09T16:06:19;1.48;;;0.82;;
19969;SDS011;10146;47.754;9.566;2022-09-09T16:08:47;1.80;;;0.98;;
19969;SDS011;10146;47.754;9.566;2022-09-09T16:11:16;3.13;;;0.85;;
19969;SDS011;10146;47.754;9.566;2022-09-09T16:13:45;1.75;;;0.90;;
19969;SDS011;10146;47.754;9.566;2022-09-09T16:16:13;1.23;;;0.70;;
19969;SDS011;10146;47.754;9.566;2022-09-09T16:18:41;4.65;;;1.42;;
19969;SDS011;10146;47.754;9.566;2022-09-09T16:21:13;2.17;;;0.75;;
19969;SDS011;10146;47.754;9.566;2022-09-09T16:23:41;2.75;;;1.00;;
19969;SDS011;10146;47.754;9.566;2022-09-09T16:26:08;0.60;;;0.60;;
19969;SDS011;10146;47.754;9.566;2022-09-09T16:28:36;2.35;;;1.20;;
19969;SDS011;10146;47.754;9.566;2022-09-09T16:31:09;4.00;;;1.38;;
19969;SDS011;10146;47.754;9.566;2022-09-09T16:33:36;2.22;;;1.00;;
19969;SDS011;10146;47.754;9.566;2022-09-09T16:36:09;7.50;;;1.10;;
19969;SDS011;10146;47.754;9.566;2022-09-09T16:38:37;2.03;;;0.90;;
19969;SDS011;10146;47.754;9.566;2022-09-09T16:41:04;2.05;;;1.00;;
19969;SDS011;10146;47.754;9.566;2022-09-09T16:43:31;3.60;;;0.80;;
19969;SDS011;10146;47.754;9.566;2022-09-09T16:46:01;1.48;;;0.88;;
19969;SDS011;10146;47.754;9.566;2022-09-09T16:48:32;2.67;;;1.10;;
19969;SDS011;10146;47.754;9.566;2022-09-09T16:51:04;2.72;;;1.10;;
19969;SDS011;10146;47.754;9.566;2022-09-09T16:53:32;2.28;;;0.98;;
19969;SDS011;10146;47.754;9.566;2022-09-09T16:56:04;2.88;;;1.05;;
19969;SDS011;10146;47.754;9.566;2022-09-09T16:58:34;3.22;;;0.90;;
19969;SDS011;10146;47.754;9.566;2022-09-09T17:01:00;5.05;;;1.10;;
19969;SDS011;10146;47.754;9.566;2022-09-09T17:03:27;3.25;;;1.05;;
19969;SDS011;10146;47.754;9.566;2022-09-09T17:05:53;4.13;;;1.10;;
19969;SDS011;10146;47.754;9.566;2022-09-09T17:08:18;5.63;;;0.90;;
19969;SDS011;10146;47.754;9.566;2022-09-09T17:10:44;2.50;;;1.00;;
19969;SDS011;10146;47.754;9.566;2022-09-09T17:13:10;2.33;;;0.90;;
19969;SDS011;10146;47.754;9.566;2022-09-09T17:15:41;1.92;;;1.05;;